Time;durP1;ratioP1;P1;durP2;ratioP2;P2;SDS_P1;SDS_P2;PMS_P1;PMS_P2;Temp;Humidity;BMP_temperature;BMP_pressure;BME280_temperature;BME280_humidity;BME280_pressure;Samples;Min_cycle;Max_cycle;Signal;HPM_P1;HPM_P2
2023/10/05 00:03:47;;;;;;;16.58;9.18;;;;;;;16.13;100.00;101927.44;4990981;28;20045;-69
2023/10/05 00:06:16;;;;;;;17.23;9.88;;;;;;;16.11;100.00;101916.34;4991128;28;20503;-70
2023/10/05 00:08:44;;;;;;;19.83;9.18;;;;;;;15.76;100.00;101889.69;4973979;28;20037;-70
2023/10/05 00:11:22;;;;;;;18.85;9.13;;;;;;;15.54;100.00;101867.00;4991204;28;20409;-71
2023/10/05 00:13:48;;;;;;;19.42;10.20;;;;;;;15.50;100.00;101891.00;4992496;28;20034;-71
2023/10/05 00:16:20;;;;;;;22.38;10.15;;;;;;;15.46;100.00;101893.63;4994918;28;20085;-70
2023/10/05 00:18:45;;;;;;;21.35;10.77;;;;;;;15.63;100.00;101911.31;4995139;28;20033;-70
2023/10/05 00:21:11;;;;;;;24.02;11.48;;;;;;;14.89;100.00;101872.34;4994935;28;20034;-70
2023/10/05 00:23:37;;;;;;;20.63;10.93;;;;;;;15.39;100.00;101945.84;4994991;28;20037;-70
2023/10/05 00:26:05;;;;;;;20.80;10.45;;;;;;;15.24;100.00;101936.69;4994722;28;20062;-71
2023/10/05 00:28:31;;;;;;;19.40;10.10;;;;;;;15.61;100.00;101955.75;4977447;28;20501;-69
2023/10/05 00:30:57;;;;;;;19.73;10.55;;;;;;;15.41;100.00;101980.00;4994690;28;20033;-69
2023/10/05 00:33:22;;;;;;;17.63;10.35;;;;;;;15.22;100.00;101973.44;4994900;28;20436;-70
2023/10/05 00:35:49;;;;;;;21.35;9.95;;;;;;;15.17;100.00;101945.31;4994894;28;20509;-69
2023/10/05 00:38:18;;;;;;;18.98;9.52;;;;;;;15.31;100.00;101953.63;4993303;28;20033;-70
2023/10/05 00:40:57;;;;;;;18.73;10.43;;;;;;;15.15;100.00;101998.31;4994686;28;20041;-67
2023/10/05 00:43:24;;;;;;;20.05;9.82;;;;;;;15.30;100.00;102028.84;4994554;28;20065;-71
2023/10/05 00:45:51;;;;;;;17.67;10.30;;;;;;;15.36;100.00;102031.34;4994740;28;20038;-70
2023/10/05 00:48:34;;;;;;;20.35;9.82;;;;;;;15.08;100.00;102021.47;4994228;28;20493;-69
2023/10/05 00:51:06;;;;;;;17.75;9.98;;;;;;;15.17;100.00;102059.81;4994611;28;20409;-69
2023/10/05 00:53:32;;;;;;;19.88;10.18;;;;;;;14.79;100.00;102034.69;4994618;28;20065;-70
2023/10/05 00:56:07;;;;;;;22.05;10.63;;;;;;;15.12;100.00;102135.88;5003708;28;20031;-69
2023/10/05 00:58:38;;;;;;;23.35;10.18;;;;;;;14.99;100.00;102153.13;5003289;28;20142;-69
2023/10/05 01:01:14;;;;;;;19.30;10.13;;;;;;;15.03;100.00;102185.53;4994575;28;20519;-70
2023/10/05 01:09:07;;;;;;;;;;;;;;;15.55;100.00;102286.63;4995007;28;20026;-71
2023/10/05 01:11:52;;;;;;;18.52;9.60;;;;;;;15.03;100.00;102213.72;4993970;28;20396;-71
2023/10/05 01:14:18;;;;;;;20.63;10.63;;;;;;;14.64;100.00;102249.91;4976564;28;20034;-70
2023/10/05 01:16:45;;;;;;;17.63;9.50;;;;;;;14.98;100.00;102297.44;4993947;28;20022;-69
2023/10/05 01:19:11;;;;;;;20.55;10.25;;;;;;;15.03;100.00;102331.56;4994154;28;20038;-69
2023/10/05 01:21:37;;;;;;;19.20;9.85;;;;;;;14.91;100.00;102354.72;4994251;28;20096;-70
2023/10/05 01:24:04;;;;;;;20.58;10.48;;;;;;;15.35;100.00;102447.47;4993724;28;20129;-70
2023/10/05 01:26:32;;;;;;;18.70;10.18;;;;;;;14.80;100.00;102424.81;4993510;28;20520;-70
2023/10/05 01:28:58;;;;;;;17.98;9.90;;;;;;;14.94;100.00;102444.34;4994122;28;20690;-70
2023/10/05 01:31:23;;;;;;;19.17;10.23;;;;;;;15.17;100.00;102546.72;4993505;28;20094;-70
2023/10/05 01:33:49;;;;;;;21.52;10.40;;;;;;;15.01;100.00;102575.84;4993652;28;20030;-70
2023/10/05 01:36:19;;;;;;;20.27;10.10;;;;;;;15.55;100.00;102614.03;4993901;28;20026;-70
2023/10/05 01:38:45;;;;;;;18.23;10.23;;;;;;;15.12;100.00;102577.50;4993721;28;20433;-72
2023/10/05 01:41:16;;;;;;;21.67;10.20;;;;;;;15.18;100.00;102610.78;4993594;28;20034;-71
2023/10/05 01:43:42;;;;;;;19.30;10.60;;;;;;;15.20;100.00;102629.59;4993518;28;20497;-70
2023/10/05 01:46:10;;;;;;;19.67;10.02;;;;;;;15.16;100.00;102663.78;4993443;28;20038;-71
2023/10/05 01:48:37;;;;;;;22.50;10.45;;;;;;;15.10;100.00;102650.13;4993627;28;20035;-69
2023/10/05 01:51:13;;;;;;;19.77;10.48;;;;;;;14.76;100.00;102629.72;4993105;28;20444;-71
2023/10/05 01:53:40;;;;;;;20.58;10.32;;;;;;;14.94;100.00;102638.22;4993658;28;20037;-71
2023/10/05 01:56:14;;;;;;;20.38;10.02;;;;;;;14.97;100.00;102586.97;4975822;28;20045;-71
2023/10/05 01:58:46;;;;;;;18.58;10.02;;;;;;;14.85;100.00;102526.41;4975823;28;20038;-71
2023/10/05 02:01:11;;;;;;;17.48;10.70;;;;;;;14.75;100.00;102478.63;4993472;28;20026;-71
2023/10/05 02:03:38;;;;;;;20.00;10.50;;;;;;;14.73;100.00;102463.28;4993299;28;20088;-71
2023/10/05 02:06:07;;;;;;;19.73;10.57;;;;;;;14.32;100.00;102423.34;4986423;28;20490;-69
2023/10/05 02:08:36;;;;;;;20.77;10.63;;;;;;;14.64;100.00;102439.41;4993034;28;20061;-71
2023/10/05 02:11:04;;;;;;;19.40;10.43;;;;;;;15.21;100.00;102464.66;4975317;28;20096;-71
2023/10/05 02:13:31;;;;;;;23.00;10.77;;;;;;;15.05;100.00;102423.81;4993211;28;20033;-70
2023/10/05 02:15:59;;;;;;;18.48;10.30;;;;;;;15.28;100.00;102417.63;5010958;28;20493;-70
2023/10/05 02:18:25;;;;;;;18.85;10.35;;;;;;;14.73;100.00;102331.81;5012354;28;20029;-70
2023/10/05 02:20:56;;;;;;;23.00;11.75;;;;;;;14.45;100.00;102336.25;5012484;28;20041;-71
2023/10/05 02:23:25;;;;;;;23.10;11.38;;;;;;;14.42;100.00;102358.47;4994918;28;20030;-69
2023/10/05 02:26:23;;;;;;;22.75;10.90;;;;;;;14.56;100.00;102380.56;4990742;28;20046;-70
2023/10/05 02:28:49;;;;;;;20.40;10.70;;;;;;;14.52;100.00;102419.81;4983650;28;20118;-71
2023/10/05 02:31:15;;;;;;;19.10;10.93;;;;;;;14.51;100.00;102445.44;4992539;28;20037;-70
2023/10/05 02:33:43;;;;;;;21.65;10.25;;;;;;;14.11;100.00;102423.38;4984839;28;20030;-70
2023/10/05 02:36:20;;;;;;;18.70;10.43;;;;;;;14.42;100.00;102455.75;4990486;28;20039;-70
2023/10/05 02:38:53;;;;;;;17.25;10.07;;;;;;;14.62;100.00;102497.44;4990074;28;20054;-70
2023/10/05 02:41:26;;;;;;;20.88;10.32;;;;;;;14.44;100.00;102493.25;4992630;28;20026;-70
2023/10/05 02:43:52;;;;;;;21.15;11.13;;;;;;;14.69;100.00;102514.50;4990613;28;20039;-70
2023/10/05 02:46:19;;;;;;;26.25;12.20;;;;;;;14.06;100.00;102460.94;4982291;28;20026;-70
2023/10/05 02:48:45;;;;;;;27.35;13.45;;;;;;;14.65;100.00;102484.66;4971842;28;20173;-70
2023/10/05 02:51:13;;;;;;;23.83;11.60;;;;;;;14.97;100.00;102494.75;4969360;28;20527;-70
2023/10/05 02:53:41;;;;;;;21.55;11.23;;;;;;;14.40;100.00;102421.63;4992216;28;20034;-70
2023/10/05 02:56:16;;;;;;;23.35;11.57;;;;;;;14.14;100.00;102403.78;4992274;28;20042;-70
2023/10/05 02:58:44;;;;;;;20.90;11.63;;;;;;;14.14;100.00;102446.41;4986659;28;20045;-69
2023/10/05 03:01:10;;;;;;;21.27;11.98;;;;;;;14.19;100.00;102442.97;4973971;28;20057;-69
2023/10/05 03:03:36;;;;;;;23.63;11.02;;;;;;;14.30;100.00;102437.88;4983292;28;20031;-70
2023/10/05 03:06:04;;;;;;;25.55;11.13;;;;;;;14.08;100.00;102385.03;4992064;28;20042;-69
2023/10/05 03:08:35;;;;;;;24.33;11.90;;;;;;;14.37;100.00;102419.06;4991829;28;20082;-69
2023/10/05 03:11:01;;;;;;;23.52;12.82;;;;;;;14.33;100.00;102417.38;4989871;28;20037;-70
2023/10/05 03:13:27;;;;;;;25.77;12.70;;;;;;;13.76;100.00;102337.41;4991515;28;20047;-69
2023/10/05 03:15:54;;;;;;;28.50;13.43;;;;;;;13.85;100.00;102370.59;4991913;28;20057;-72
2023/10/05 03:18:20;;;;;;;32.67;14.15;;;;;;;13.69;100.00;102302.47;4990788;28;20481;-70
2023/10/05 03:20:46;;;;;;;27.00;13.63;;;;;;;13.97;100.00;102361.16;4991268;28;20120;-70
2023/10/05 03:23:14;;;;;;;30.10;13.38;;;;;;;13.91;100.00;102344.16;5002951;28;20088;-69
2023/10/05 03:25:41;;;;;;;32.10;14.25;;;;;;;14.19;100.00;102352.56;5002375;28;20086;-72
2023/10/05 03:28:06;;;;;;;30.73;14.00;;;;;;;13.89;100.00;102282.78;4987264;28;20112;-71
2023/10/05 03:30:35;;;;;;;27.38;14.30;;;;;;;14.04;100.00;102309.16;4991230;28;20042;-71
2023/10/05 03:33:04;;;;;;;24.88;14.32;;;;;;;13.58;100.00;102239.44;4991676;28;20026;-71
2023/10/05 03:35:32;;;;;;;31.38;13.98;;;;;;;13.55;100.00;102231.78;4991417;28;20026;-71
2023/10/05 03:37:58;;;;;;;24.80;12.75;;;;;;;13.75;100.00;102238.50;4991320;28;20077;-70
2023/10/05 03:40:25;;;;;;;28.25;13.40;;;;;;;13.85;100.00;102291.31;4991540;28;20022;-70
2023/10/05 03:42:57;;;;;;;25.70;12.77;;;;;;;13.31;100.00;102288.09;4991748;28;20104;-70
2023/10/05 03:45:23;;;;;;;27.90;13.05;;;;;;;13.35;100.00;102256.56;4992143;28;20031;-70
2023/10/05 03:47:49;;;;;;;21.27;11.98;;;;;;;13.47;100.00;102326.38;4991188;28;20045;-69
2023/10/05 03:50:17;;;;;;;25.58;11.07;;;;;;;13.24;100.00;102289.78;4974011;28;20404;-70
2023/10/05 03:52:46;;;;;;;23.38;10.65;;;;;;;13.45;100.00;102327.25;4991145;28;20053;-70
2023/10/05 03:55:13;;;;;;;20.58;11.07;;;;;;;13.37;100.00;102346.84;4991332;28;20030;-71
2023/10/05 03:57:41;;;;;;;25.00;11.35;;;;;;;13.05;100.00;102313.66;4990114;28;20023;-71
2023/10/05 04:02:43;;;;;;;24.55;11.02;;;;;;;13.31;100.00;102409.00;4991187;28;20406;-70
2023/10/05 04:05:10;;;;;;;23.75;11.50;;;;;;;13.23;100.00;102415.81;4990717;28;20030;-75
2023/10/05 04:07:36;;;;;;;23.45;11.73;;;;;;;13.22;100.00;102411.56;4988998;28;20089;-69
2023/10/05 04:10:03;;;;;;;21.45;10.40;;;;;;;12.82;100.00;102298.31;4990708;28;20039;-70
2023/10/05 04:12:32;;;;;;;19.92;10.40;;;;;;;12.65;100.00;102243.00;4990990;28;20413;-69
2023/10/05 04:15:00;;;;;;;21.52;10.68;;;;;;;13.14;100.00;102247.25;4991178;28;20030;-69
2023/10/05 04:17:26;;;;;;;21.10;11.10;;;;;;;12.37;100.00;102198.75;4991454;28;20030;-70
2023/10/05 04:19:52;;;;;;;22.48;11.23;;;;;;;12.88;100.00;102223.41;4988002;28;20026;-69
2023/10/05 04:22:18;;;;;;;22.52;11.38;;;;;;;13.00;100.00;102214.03;5004153;28;20045;-70
2023/10/05 04:24:44;;;;;;;22.90;11.23;;;;;;;13.15;100.00;102237.88;4990671;28;20088;-71
2023/10/05 04:27:10;;;;;;;19.70;10.45;;;;;;;13.31;100.00;102240.38;4989705;28;20456;-70
2023/10/05 04:29:37;;;;;;;18.25;10.45;;;;;;;13.37;100.00;102217.34;4990905;28;20031;-69
2023/10/05 04:32:03;;;;;;;23.70;11.43;;;;;;;13.05;100.00;102145.13;4990569;28;20073;-70
2023/10/05 04:34:31;;;;;;;21.80;10.98;;;;;;;13.09;100.00;102116.16;4990544;28;20039;-68
2023/10/05 04:36:58;;;;;;;20.10;11.05;;;;;;;13.25;100.00;102170.59;4990602;28;20065;-69
2023/10/05 04:39:30;;;;;;;23.17;11.30;;;;;;;13.02;100.00;102110.19;4990943;28;20093;-71
2023/10/05 04:42:11;;;;;;;22.08;11.23;;;;;;;13.40;100.00;102106.63;4990963;28;20026;-70
2023/10/05 04:44:38;;;;;;;21.65;11.38;;;;;;;13.62;100.00;102073.28;4990584;28;20037;-70
2023/10/05 04:47:04;;;;;;;22.42;12.18;;;;;;;14.51;100.00;102069.13;4990856;28;20042;-70
2023/10/05 04:49:30;;;;;;;25.67;14.27;;;;;;;15.06;100.00;102028.34;4964551;28;20031;-68
2023/10/05 04:51:57;;;;;;;23.20;11.02;;;;;;;14.88;100.00;101947.47;4970390;28;20109;-70
2023/10/05 04:54:26;;;;;;;22.70;10.85;;;;;;;15.10;100.00;101958.25;4969085;28;20053;-70
2023/10/05 04:57:02;;;;;;;22.90;11.27;;;;;;;14.94;100.00;101949.94;4971657;28;20077;-70
2023/10/05 04:59:48;;;;;;;24.20;11.30;;;;;;;15.09;100.00;101923.25;4972282;28;20085;-70
2023/10/05 05:02:35;;;;;;;25.15;12.65;;;;;;;14.62;100.00;101839.44;4974800;28;20524;-70
2023/10/05 05:05:21;;;;;;;24.85;12.35;;;;;;;17.11;100.00;101860.22;4974733;28;20497;-70
2023/10/05 05:07:48;;;;;;;23.33;11.43;;;;;;;15.05;100.00;101703.84;4974726;28;20142;-69
2023/10/05 05:10:20;;;;;;;20.73;12.35;;;;;;;15.77;100.00;101824.69;4973173;28;20505;-71
2023/10/05 05:12:46;;;;;;;26.00;11.68;;;;;;;17.02;100.00;101711.38;4974815;28;20058;-69
2023/10/05 05:15:13;;;;;;;25.77;11.90;;;;;;;16.06;100.00;101725.72;4974841;28;20035;-69
2023/10/05 05:17:40;;;;;;;25.45;11.00;;;;;;;15.95;100.00;101652.41;4974651;28;20035;-69
2023/10/05 05:20:11;;;;;;;29.67;12.45;;;;;;;17.09;100.00;101674.34;4974563;28;20122;-70
2023/10/05 05:22:37;;;;;;;25.40;11.77;;;;;;;16.42;100.00;101670.94;4974717;28;20482;-68
2023/10/05 05:25:06;;;;;;;22.10;11.73;;;;;;;15.82;100.00;101644.16;4973015;28;20117;-69
2023/10/05 05:27:33;;;;;;;29.10;12.32;;;;;;;15.16;100.00;101650.69;4973358;28;20041;-70
2023/10/05 05:29:59;;;;;;;27.90;12.27;;;;;;;15.14;100.00;101739.53;4974592;28;20505;-70
2023/10/05 05:32:24;;;;;;;27.88;12.82;;;;;;;15.00;100.00;101709.06;4974407;28;20035;-69
2023/10/05 05:34:50;;;;;;;23.50;12.23;;;;;;;15.65;100.00;101789.84;4974111;28;20027;-69
2023/10/05 05:37:30;;;;;;;24.88;11.93;;;;;;;15.42;100.00;101785.19;4973955;28;20045;-70
2023/10/05 05:40:09;;;;;;;25.15;12.02;;;;;;;15.72;100.00;101800.84;4974423;28;20117;-71
2023/10/05 05:42:35;;;;;;;29.90;12.55;;;;;;;15.10;100.00;101759.25;4974284;28;20053;-70
2023/10/05 05:45:06;;;;;;;24.95;12.82;;;;;;;14.98;100.00;101813.25;4974323;28;20469;-69
2023/10/05 05:47:33;;;;;;;29.10;13.10;;;;;;;15.10;100.00;101838.69;4974042;28;20023;-69
2023/10/05 05:50:00;;;;;;;27.27;13.82;;;;;;;14.45;100.00;101805.56;4973872;28;20038;-69
2023/10/05 05:52:26;;;;;;;26.05;13.13;;;;;;;15.15;100.00;101870.19;4974067;28;20023;-70
2023/10/05 05:54:52;;;;;;;21.27;11.70;;;;;;;14.91;100.00;101839.00;4973920;28;20033;-69
2023/10/05 05:57:19;;;;;;;25.05;13.05;;;;;;;15.34;100.00;101874.16;4973979;28;20042;-69
2023/10/05 05:59:44;;;;;;;28.67;13.13;;;;;;;15.76;100.00;101894.81;4974129;28;20482;-71
2023/10/05 06:02:13;;;;;;;27.58;12.90;;;;;;;16.08;100.00;101859.13;4973566;28;20033;-70
2023/10/05 06:04:40;;;;;;;29.52;13.02;;;;;;;15.66;100.00;101804.38;4973682;28;20062;-70
2023/10/05 06:07:13;;;;;;;29.58;13.38;;;;;;;16.20;100.00;101840.91;4972358;28;20097;-70
2023/10/05 06:09:45;;;;;;;26.65;13.48;;;;;;;16.48;100.00;101824.88;4973764;28;20023;-70
2023/10/05 06:12:15;;;;;;;24.98;13.57;;;;;;;16.45;100.00;101832.63;4972558;28;20022;-69
2023/10/05 06:14:41;;;;;;;27.45;13.00;;;;;;;16.13;100.00;101770.03;4972051;28;20026;-70
2023/10/05 06:17:07;;;;;;;25.40;13.38;;;;;;;16.82;100.00;101819.81;4973574;28;20034;-70
2023/10/05 06:19:33;;;;;;;26.08;12.40;;;;;;;16.76;100.00;101812.25;4973712;28;20031;-70
2023/10/05 06:21:58;;;;;;;28.50;13.77;;;;;;;16.76;100.00;101807.09;4973185;28;20061;-70
2023/10/05 06:24:24;;;;;;;23.45;13.52;;;;;;;16.85;100.00;101765.78;4955911;28;20039;-70
2023/10/05 06:26:50;;;;;;;31.50;13.77;;;;;;;16.99;100.00;101762.88;4973159;28;20051;-71
2023/10/05 06:29:15;;;;;;;33.55;13.13;;;;;;;17.43;100.00;101789.97;4973164;28;20027;-70
2023/10/05 06:31:41;;;;;;;27.55;12.75;;;;;;;17.50;100.00;101722.06;4971693;28;20706;-70
2023/10/05 06:34:09;;;;;;;29.23;12.88;;;;;;;17.70;100.00;101701.78;4973200;28;20118;-69
2023/10/05 06:36:38;;;;;;;28.52;13.00;;;;;;;17.97;100.00;101762.72;4973442;28;20038;-70
2023/10/05 06:39:14;;;;;;;27.17;12.88;;;;;;;17.49;100.00;101726.38;4972779;28;20031;-70
2023/10/05 06:41:40;;;;;;;23.80;13.25;;;;;;;18.03;100.00;101704.16;4973120;28;20031;-69
2023/10/05 06:44:11;;;;;;;27.00;13.80;;;;;;;18.31;100.00;101757.38;4972828;28;20046;-69
2023/10/05 06:46:42;;;;;;;26.65;13.25;;;;;;;18.46;100.00;101742.31;4973183;28;20045;-70
2023/10/05 06:49:09;;;;;;;;;;;;;;;18.60;100.00;101736.72;4973334;28;20030;-68
2023/10/05 06:51:35;;;;;;;25.40;13.18;;;;;;;18.17;100.00;101739.78;4973092;28;19937;-69
2023/10/05 06:54:00;;;;;;;23.27;13.35;;;;;;;18.34;100.00;101740.13;4972804;28;20022;-69
2023/10/05 06:56:26;;;;;;;26.27;13.23;;;;;;;18.62;100.00;101740.91;4972737;28;20452;-69
2023/10/05 06:58:52;;;;;;;24.17;12.63;;;;;;;18.28;100.00;101675.94;4972683;28;20074;-71
2023/10/05 07:01:20;;;;;;;27.38;13.82;;;;;;;18.49;100.00;101666.66;4972679;28;20485;-70
2023/10/05 07:03:53;;;;;;;29.35;13.60;;;;;;;18.63;100.00;101708.28;4972673;28;20031;-69
2023/10/05 07:06:24;;;;;;;23.98;13.23;;;;;;;18.17;100.00;101668.53;4971213;28;20031;-69
2023/10/05 07:08:52;;;;;;;29.67;13.38;;;;;;;18.64;100.00;101733.16;4972404;28;20120;-69
2023/10/05 07:11:18;;;;;;;25.40;13.18;;;;;;;18.73;100.00;101702.78;4972574;28;20909;-69
2023/10/05 07:13:46;;;;;;;23.25;12.88;;;;;;;19.15;100.00;101709.91;4972659;28;20031;-69
2023/10/05 07:16:15;;;;;;;23.77;13.30;;;;;;;19.19;100.00;101667.63;4971230;28;20498;-69
2023/10/05 07:18:41;;;;;;;22.27;12.50;;;;;;;19.53;100.00;101668.13;4972048;28;20040;-68
2023/10/05 07:21:09;;;;;;;24.15;13.02;;;;;;;18.66;100.00;101618.00;4970851;28;20402;-69
2023/10/05 07:23:36;;;;;;;20.95;12.60;;;;;;;19.67;100.00;101664.09;4971815;28;20037;-70
2023/10/05 07:26:03;;;;;;;22.63;13.13;;;;;;;19.90;100.00;101637.38;4972282;28;20409;-70
2023/10/05 07:28:29;;;;;;;26.42;13.20;;;;;;;20.01;100.00;101618.88;4972443;28;20039;-70
2023/10/05 07:30:56;;;;;;;22.63;12.95;;;;;;;20.24;100.00;101595.56;4972187;28;20042;-70
2023/10/05 07:33:22;;;;;;;27.05;13.30;;;;;;;20.69;100.00;101619.44;4972019;28;20126;-70
2023/10/05 07:35:47;;;;;;;27.17;13.75;;;;;;;20.87;100.00;101649.69;4971887;28;20512;-71
2023/10/05 07:38:14;;;;;;;25.35;13.35;;;;;;;20.68;100.00;101639.28;4954389;28;20023;-71
2023/10/05 07:40:41;;;;;;;29.88;14.25;;;;;;;20.88;100.00;101616.91;4972299;28;20085;-70
2023/10/05 07:43:07;;;;;;;27.23;13.43;;;;;;;20.04;100.00;101578.28;4972362;28;20041;-70
2023/10/05 07:45:33;;;;;;;26.73;13.00;;;;;;;20.88;100.00;101593.63;4977712;28;20027;-70
2023/10/05 07:47:59;;;;;;;27.50;14.43;;;;;;;21.36;100.00;101631.09;4976222;28;20041;-70
2023/10/05 07:50:26;;;;;;;24.58;13.32;;;;;;;21.35;100.00;101615.63;4972045;28;20404;-70
2023/10/05 07:52:51;;;;;;;26.23;13.18;;;;;;;21.51;100.00;101622.59;4971734;28;20045;-70
2023/10/05 07:55:17;;;;;;;27.80;12.45;;;;;;;22.04;100.00;101646.00;4972139;28;20113;-69
2023/10/05 07:57:43;;;;;;;31.25;13.10;;;;;;;21.98;100.00;101638.50;4971912;28;20027;-69
2023/10/05 08:00:12;;;;;;;26.33;11.95;;;;;;;21.94;100.00;101623.19;4971389;28;20117;-69
2023/10/05 08:02:40;;;;;;;21.58;12.45;;;;;;;21.05;100.00;101549.75;4970774;28;20031;-70
2023/10/05 08:05:07;;;;;;;19.40;11.40;;;;;;;21.54;100.00;101652.69;4971927;28;20497;-70
2023/10/05 08:07:32;;;;;;;21.00;12.13;;;;;;;20.67;100.00;101606.59;4971487;28;20035;-69
2023/10/05 08:09:59;;;;;;;27.13;12.95;;;;;;;21.36;100.00;101588.81;4971634;28;20090;-69
2023/10/05 08:12:27;;;;;;;25.50;12.13;;;;;;;21.40;100.00;101587.78;4971852;28;20042;-69
2023/10/05 08:14:54;;;;;;;21.13;11.43;;;;;;;21.74;100.00;101587.84;4971961;28;20034;-70
2023/10/05 08:17:23;;;;;;;24.33;12.32;;;;;;;21.54;100.00;101634.56;4971677;28;20058;-71
2023/10/05 08:19:49;;;;;;;19.55;11.25;;;;;;;21.62;100.00;101546.16;4971847;28;20033;-68
2023/10/05 08:22:16;;;;;;;21.67;10.85;;;;;;;22.35;100.00;101640.97;4971674;28;20105;-71
2023/10/05 08:24:42;;;;;;;27.98;11.57;;;;;;;21.95;100.00;101648.16;4971688;28;20019;-71
2023/10/05 08:27:11;;;;;;;20.27;10.88;;;;;;;21.93;100.00;101577.44;4971190;28;20130;-69
2023/10/05 08:29:39;;;;;;;19.15;10.73;;;;;;;22.14;100.00;101572.06;4971507;28;20030;-69
2023/10/05 08:32:06;;;;;;;18.40;9.82;;;;;;;21.64;100.00;101648.75;4971610;28;20031;-71
2023/10/05 08:34:32;;;;;;;20.10;9.98;;;;;;;22.13;100.00;101552.25;4972205;28;20121;-70
2023/10/05 08:36:57;;;;;;;25.13;10.48;;;;;;;22.83;100.00;101629.03;4975200;28;20478;-70
2023/10/05 08:39:25;;;;;;;19.50;10.18;;;;;;;23.01;100.00;101569.22;4975183;28;20041;-70
2023/10/05 08:41:54;;;;;;;20.10;10.30;;;;;;;23.52;100.00;101609.69;4975254;28;20039;-70
2023/10/05 08:44:27;;;;;;;19.65;10.40;;;;;;;23.59;100.00;101625.78;4975257;28;20053;-70
2023/10/05 08:46:56;;;;;;;22.65;11.13;;;;;;;22.78;100.00;101602.50;4975454;28;20043;-70
2023/10/05 08:49:23;;;;;;;21.25;9.80;;;;;;;23.24;100.00;101579.19;4974702;28;20509;-70
2023/10/05 08:51:49;;;;;;;20.98;10.27;;;;;;;23.43;100.00;101579.06;4975195;28;20027;-70
2023/10/05 08:54:15;;;;;;;22.67;10.50;;;;;;;23.57;100.00;101638.03;4975691;28;20039;-70
2023/10/05 08:56:45;;;;;;;19.48;10.10;;;;;;;23.79;100.00;101628.94;4975140;28;20564;-70
2023/10/05 08:59:13;;;;;;;23.10;10.23;;;;;;;23.78;100.00;101626.41;4975019;28;20453;-70
2023/10/05 09:01:42;;;;;;;20.17;10.30;;;;;;;24.14;100.00;101629.56;4974650;28;20038;-70
2023/10/05 09:06:52;;;;;;;17.52;9.60;;;;;;;23.85;100.00;101613.00;4974697;28;20097;-70
2023/10/05 09:09:38;;;;;;;19.65;10.15;;;;;;;24.00;100.00;101632.09;4975000;28;20034;-72
2023/10/05 09:12:37;;;;;;;17.02;9.50;;;;;;;23.46;100.00;101641.19;4974426;28;20114;-70
2023/10/05 09:15:27;;;;;;;18.55;10.52;;;;;;;23.47;100.00;101647.25;4974852;28;20054;-72
2023/10/05 09:17:58;;;;;;;21.58;10.23;;;;;;;23.96;100.00;101638.38;4957426;28;20066;-71
2023/10/05 09:20:32;;;;;;;21.95;10.48;;;;;;;23.52;100.00;101588.91;4974302;28;20030;-71
2023/10/05 09:23:05;;;;;;;21.27;9.95;;;;;;;24.41;100.00;101638.34;4973334;28;20031;-70
2023/10/05 09:25:34;;;;;;;19.25;9.65;;;;;;;24.41;100.00;101611.50;4974353;28;20074;-71
2023/10/05 09:28:09;;;;;;;22.75;10.07;;;;;;;23.98;100.00;101624.38;4974541;28;20548;-74
2023/10/05 09:30:56;;;;;;;21.17;10.25;;;;;;;24.66;100.00;101615.16;4630745;28;9999806;-72
2023/10/05 09:33:24;;;;;;;17.27;10.18;;;;;;;24.89;100.00;101582.56;4988899;28;20497;-70
2023/10/05 09:35:49;;;;;;;18.52;9.93;;;;;;;25.05;100.00;101592.84;4990535;28;20525;-73
2023/10/05 09:38:19;;;;;;;20.27;10.32;;;;;;;24.44;100.00;101551.50;4972207;28;20038;-71
2023/10/05 09:40:47;;;;;;;20.58;9.57;;;;;;;24.59;100.00;101560.97;4990377;28;20116;-70
2023/10/05 09:43:18;;;;;;;19.77;10.23;;;;;;;24.49;100.00;101599.72;4989374;28;20035;-70
2023/10/05 09:45:45;;;;;;;;;;;;;;;24.82;100.00;101609.88;4990573;28;20046;-70
2023/10/05 09:48:13;;;;;;;16.95;9.60;;;;;;;24.43;100.00;101578.44;4980468;28;19937;-69
2023/10/05 09:50:40;;;;;;;19.88;9.27;;;;;;;24.06;100.00;101558.97;4974160;28;20490;-69
2023/10/05 09:53:06;;;;;;;18.98;9.98;;;;;;;24.72;100.00;101593.16;4974238;28;20078;-70
2023/10/05 09:55:33;;;;;;;21.83;10.90;;;;;;;25.13;100.00;101575.84;4973845;28;20035;-70
2023/10/05 09:58:05;;;;;;;25.75;11.15;;;;;;;25.27;100.00;101541.94;4956267;28;20485;-70
2023/10/05 10:03:04;;;;;;;23.15;11.05;;;;;;;26.12;100.00;101521.53;4973834;28;20039;-69
2023/10/05 10:05:41;;;;;;;19.58;11.05;;;;;;;26.29;100.00;101468.19;4973728;28;20094;-69
2023/10/05 10:08:20;;;;;;;20.48;11.07;;;;;;;26.26;100.00;101499.72;4973636;28;20078;-69
2023/10/05 10:11:00;;;;;;;19.02;12.57;;;;;;;26.54;100.00;101481.22;4971321;28;20517;-69
2023/10/05 10:13:39;;;;;;;17.33;9.75;;;;;;;26.49;100.00;101454.59;4972408;28;20484;-68
2023/10/05 10:16:22;;;;;;;21.88;9.68;;;;;;;26.88;100.00;101492.75;4973648;28;20455;-68
2023/10/05 10:19:18;;;;;;;19.00;9.65;;;;;;;26.87;100.00;101494.50;4973346;28;20513;-68
2023/10/05 10:21:46;;;;;;;20.85;8.25;;;;;;;26.87;100.00;101434.47;4973463;28;20591;-68
2023/10/05 10:24:17;;;;;;;19.83;8.93;;;;;;;26.86;100.00;101430.16;4972234;28;20034;-68
2023/10/05 10:26:59;;;;;;;19.67;9.27;;;;;;;26.99;100.00;101471.91;4973182;28;20051;-69
2023/10/05 10:29:39;;;;;;;18.95;9.38;;;;;;;26.72;100.00;101471.28;4956105;28;20043;-69
2023/10/05 10:32:19;;;;;;;24.27;8.70;;;;;;;26.88;100.00;101422.25;4973400;28;20065;-69
2023/10/05 10:35:09;;;;;;;14.32;7.80;;;;;;;26.98;100.00;101471.06;4973339;28;20065;-68
2023/10/05 10:37:54;;;;;;;19.67;8.10;;;;;;;27.40;100.00;101409.63;4955484;28;20046;-70
2023/10/05 10:45:49;;;;;;;15.27;8.13;;;;;;;27.10;100.00;101365.69;4973154;28;20035;-70
2023/10/05 10:48:20;;;;;;;18.75;7.57;;;;;;;26.85;100.00;101427.66;4971573;28;20038;-68
2023/10/05 10:50:52;;;;;;;15.60;8.30;;;;;;;27.42;100.00;101439.94;4971675;28;20031;-69
2023/10/05 10:53:18;;;;;;;16.77;7.50;;;;;;;26.72;100.00;101336.34;4973243;28;20035;-69
2023/10/05 10:55:47;;;;;;;16.80;7.38;;;;;;;27.60;100.00;101385.44;4972603;28;20042;-69
2023/10/05 10:58:13;;;;;;;14.85;7.53;;;;;;;27.68;100.00;101405.75;4972069;28;20039;-69
2023/10/05 11:00:56;;;;;;;14.18;7.47;;;;;;;27.08;100.00;101358.91;4972949;28;20026;-69
2023/10/05 11:03:26;;;;;;;15.13;7.15;;;;;;;27.14;100.00;101316.66;4972867;28;20026;-70
2023/10/05 11:05:54;;;;;;;16.53;7.53;;;;;;;27.27;100.00;101401.00;4967230;28;20030;-70
2023/10/05 11:08:22;;;;;;;16.73;7.28;;;;;;;26.88;100.00;101349.94;4975097;28;20398;-69
2023/10/05 11:11:09;;;;;;;19.42;7.47;;;;;;;26.69;100.00;101420.09;4982453;28;20042;-69
2023/10/05 11:13:49;;;;;;;15.25;7.35;;;;;;;26.88;100.00;101428.28;4958194;28;20037;-70
2023/10/05 11:16:15;;;;;;;15.00;7.57;;;;;;;26.96;100.00;101391.19;4972392;28;20109;-68
2023/10/05 11:18:58;;;;;;;15.15;7.55;;;;;;;26.93;100.00;101300.84;4972512;28;20512;-69
2023/10/05 11:21:27;;;;;;;15.68;7.78;;;;;;;26.90;100.00;101392.44;4972548;28;20118;-69
2023/10/05 11:23:57;;;;;;;15.90;7.53;;;;;;;26.76;100.00;101355.25;4972294;28;20027;-69
2023/10/05 11:26:27;;;;;;;16.48;7.55;;;;;;;26.77;100.00;101307.31;4972540;28;20046;-68
2023/10/05 11:28:53;;;;;;;17.13;7.70;;;;;;;27.92;100.00;101328.84;4972256;28;20047;-68
2023/10/05 11:31:26;;;;;;;17.90;7.53;;;;;;;27.45;100.00;101390.03;4972066;28;20051;-69
2023/10/05 11:33:56;;;;;;;16.20;7.78;;;;;;;27.75;100.00;101337.16;4970612;28;20111;-68
2023/10/05 11:36:27;;;;;;;16.02;7.30;;;;;;;27.74;100.00;101384.38;4972247;28;20031;-68